sensor_id;sensor_type;location;lat;lon;timestamp;temperature;humidity
19292;DHT22;9779;51.756;7.450;2023-04-21T00:01:56;9.20;1.00
19292;DHT22;9779;51.756;7.450;2023-04-21T00:04:23;9.20;1.00
19292;DHT22;9779;51.756;7.450;2023-04-21T00:06:49;9.20;1.00
19292;DHT22;9779;51.756;7.450;2023-04-21T00:09:14;9.10;1.00
19292;DHT22;9779;51.756;7.450;2023-04-21T00:11:41;9.20;1.00
19292;DHT22;9779;51.756;7.450;2023-04-21T00:14:06;9.20;1.00
19292;DHT22;9779;51.756;7.450;2023-04-21T00:16:32;9.20;1.00
19292;DHT22;9779;51.756;7.450;2023-04-21T00:18:57;9.20;1.00
19292;DHT22;9779;51.756;7.450;2023-04-21T00:21:23;9.20;1.00
19292;DHT22;9779;51.756;7.450;2023-04-21T00:23:49;9.20;1.00
19292;DHT22;9779;51.756;7.450;2023-04-21T00:26:15;9.20;1.00
19292;DHT22;9779;51.756;7.450;2023-04-21T00:28:40;9.20;1.00
19292;DHT22;9779;51.756;7.450;2023-04-21T00:31:06;9.20;1.00
19292;DHT22;9779;51.756;7.450;2023-04-21T00:33:31;9.30;1.00
19292;DHT22;9779;51.756;7.450;2023-04-21T00:35:57;9.30;1.00
19292;DHT22;9779;51.756;7.450;2023-04-21T00:38:23;9.30;1.00
19292;DHT22;9779;51.756;7.450;2023-04-21T00:40:49;9.30;1.00
19292;DHT22;9779;51.756;7.450;2023-04-21T00:43:14;9.30;1.00
19292;DHT22;9779;51.756;7.450;2023-04-21T00:45:40;9.30;1.00
19292;DHT22;9779;51.756;7.450;2023-04-21T00:48:06;9.30;1.00
19292;DHT22;9779;51.756;7.450;2023-04-21T00:50:32;9.30;1.00
19292;DHT22;9779;51.756;7.450;2023-04-21T00:52:57;9.30;1.00
19292;DHT22;9779;51.756;7.450;2023-04-21T00:55:24;9.30;1.00
19292;DHT22;9779;51.756;7.450;2023-04-21T00:57:51;9.30;1.00
19292;DHT22;9779;51.756;7.450;2023-04-21T01:00:16;9.30;1.00
19292;DHT22;9779;51.756;7.450;2023-04-21T01:02:42;9.30;1.00
19292;DHT22;9779;51.756;7.450;2023-04-21T01:05:10;9.30;1.00
19292;DHT22;9779;51.756;7.450;2023-04-21T01:07:36;9.30;1.00
19292;DHT22;9779;51.756;7.450;2023-04-21T01:10:02;9.30;1.00
19292;DHT22;9779;51.756;7.450;2023-04-21T01:12:28;9.30;1.00
19292;DHT22;9779;51.756;7.450;2023-04-21T01:14:54;9.30;1.00
19292;DHT22;9779;51.756;7.450;2023-04-21T01:17:19;9.30;1.00
19292;DHT22;9779;51.756;7.450;2023-04-21T01:19:46;9.40;1.00
19292;DHT22;9779;51.756;7.450;2023-04-21T01:22:12;9.40;1.00
19292;DHT22;9779;51.756;7.450;2023-04-21T01:24:41;9.40;1.00
19292;DHT22;9779;51.756;7.450;2023-04-21T01:27:11;9.40;1.00
19292;DHT22;9779;51.756;7.450;2023-04-21T01:29:39;9.40;1.00
19292;DHT22;9779;51.756;7.450;2023-04-21T01:32:17;9.40;1.00
19292;DHT22;9779;51.756;7.450;2023-04-21T01:34:43;9.40;1.00
19292;DHT22;9779;51.756;7.450;2023-04-21T01:37:15;9.40;1.00
19292;DHT22;9779;51.756;7.450;2023-04-21T01:39:43;9.40;1.00
19292;DHT22;9779;51.756;7.450;2023-04-21T01:42:09;9.40;1.00
19292;DHT22;9779;51.756;7.450;2023-04-21T01:44:36;9.40;1.00
19292;DHT22;9779;51.756;7.450;2023-04-21T01:47:01;9.40;1.00
19292;DHT22;9779;51.756;7.450;2023-04-21T01:49:27;9.40;1.00
19292;DHT22;9779;51.756;7.450;2023-04-21T01:51:53;9.40;1.00
19292;DHT22;9779;51.756;7.450;2023-04-21T01:54:19;9.40;1.00
19292;DHT22;9779;51.756;7.450;2023-04-21T01:56:44;9.40;1.00
19292;DHT22;9779;51.756;7.450;2023-04-21T01:59:10;9.40;1.00
19292;DHT22;9779;51.756;7.450;2023-04-21T02:01:35;9.40;1.00
19292;DHT22;9779;51.756;7.450;2023-04-21T02:04:04;9.40;1.00
19292;DHT22;9779;51.756;7.450;2023-04-21T02:06:30;9.30;1.00
19292;DHT22;9779;51.756;7.450;2023-04-21T02:08:56;9.40;1.00
19292;DHT22;9779;51.756;7.450;2023-04-21T02:11:23;9.40;1.00
19292;DHT22;9779;51.756;7.450;2023-04-21T02:13:51;9.40;3.80
19292;DHT22;9779;51.756;7.450;2023-04-21T02:16:16;9.40;26.50
19292;DHT22;9779;51.756;7.450;2023-04-21T02:18:42;9.40;21.70
19292;DHT22;9779;51.756;7.450;2023-04-21T02:21:08;9.30;42.50
19292;DHT22;9779;51.756;7.450;2023-04-21T02:23:34;9.30;71.60
19292;DHT22;9779;51.756;7.450;2023-04-21T02:25:59;9.30;55.40
19292;DHT22;9779;51.756;7.450;2023-04-21T02:28:25;9.40;21.80
19292;DHT22;9779;51.756;7.450;2023-04-21T02:30:51;9.40;12.10
19292;DHT22;9779;51.756;7.450;2023-04-21T02:33:16;9.40;44.80
19292;DHT22;9779;51.756;7.450;2023-04-21T02:35:42;9.30;56.10
19292;DHT22;9779;51.756;7.450;2023-04-21T02:38:07;9.40;56.40
19292;DHT22;9779;51.756;7.450;2023-04-21T02:40:33;9.40;52.60
19292;DHT22;9779;51.756;7.450;2023-04-21T02:42:59;9.40;46.90
19292;DHT22;9779;51.756;7.450;2023-04-21T02:45:24;9.40;42.50
19292;DHT22;9779;51.756;7.450;2023-04-21T02:47:50;9.40;63.80
19292;DHT22;9779;51.756;7.450;2023-04-21T02:50:15;9.40;81.60
19292;DHT22;9779;51.756;7.450;2023-04-21T02:52:41;9.40;99.90
19292;DHT22;9779;51.756;7.450;2023-04-21T02:55:07;9.40;99.90
19292;DHT22;9779;51.756;7.450;2023-04-21T02:57:32;9.40;99.90
19292;DHT22;9779;51.756;7.450;2023-04-21T02:59:58;9.40;99.90
19292;DHT22;9779;51.756;7.450;2023-04-21T03:02:23;9.30;99.90
19292;DHT22;9779;51.756;7.450;2023-04-21T03:04:49;9.30;99.90
19292;DHT22;9779;51.756;7.450;2023-04-21T03:07:15;9.30;99.90
19292;DHT22;9779;51.756;7.450;2023-04-21T03:09:41;9.30;99.90
19292;DHT22;9779;51.756;7.450;2023-04-21T03:12:07;9.30;99.90
19292;DHT22;9779;51.756;7.450;2023-04-21T03:14:32;9.30;99.90
19292;DHT22;9779;51.756;7.450;2023-04-21T03:16:58;9.40;99.90
19292;DHT22;9779;51.756;7.450;2023-04-21T03:19:23;9.30;99.90
19292;DHT22;9779;51.756;7.450;2023-04-21T03:21:49;9.40;99.90
19292;DHT22;9779;51.756;7.450;2023-04-21T03:24:14;9.30;99.90
19292;DHT22;9779;51.756;7.450;2023-04-21T03:26:40;9.30;99.90
19292;DHT22;9779;51.756;7.450;2023-04-21T03:29:06;9.30;99.90
19292;DHT22;9779;51.756;7.450;2023-04-21T03:31:31;9.30;99.90
19292;DHT22;9779;51.756;7.450;2023-04-21T03:33:57;9.30;99.90
19292;DHT22;9779;51.756;7.450;2023-04-21T03:36:23;9.40;99.90
19292;DHT22;9779;51.756;7.450;2023-04-21T03:38:48;9.30;99.90
19292;DHT22;9779;51.756;7.450;2023-04-21T03:41:14;9.30;99.90
19292;DHT22;9779;51.756;7.450;2023-04-21T03:43:40;9.30;99.90
19292;DHT22;9779;51.756;7.450;2023-04-21T03:46:05;9.30;99.90
19292;DHT22;9779;51.756;7.450;2023-04-21T03:48:31;9.30;99.90
19292;DHT22;9779;51.756;7.450;2023-04-21T03:50:56;9.30;99.90
19292;DHT22;9779;51.756;7.450;2023-04-21T03:53:22;9.30;99.90
19292;DHT22;9779;51.756;7.450;2023-04-21T03:55:49;9.30;99.90
19292;DHT22;9779;51.756;7.450;2023-04-21T03:58:15;9.30;99.90
19292;DHT22;9779;51.756;7.450;2023-04-21T04:00:41;9.40;99.90
19292;DHT22;9779;51.756;7.450;2023-04-21T04:03:07;9.40;99.90
19292;DHT22;9779;51.756;7.450;2023-04-21T04:05:34;9.30;99.90
19292;DHT22;9779;51.756;7.450;2023-04-21T04:08:00;9.30;99.90
19292;DHT22;9779;51.756;7.450;2023-04-21T04:10:26;9.30;99.90
19292;DHT22;9779;51.756;7.450;2023-04-21T04:12:51;9.30;99.90
19292;DHT22;9779;51.756;7.450;2023-04-21T04:15:17;9.40;99.90
19292;DHT22;9779;51.756;7.450;2023-04-21T04:17:42;9.30;99.90
19292;DHT22;9779;51.756;7.450;2023-04-21T04:20:08;9.40;99.90
19292;DHT22;9779;51.756;7.450;2023-04-21T04:22:34;9.40;99.90
19292;DHT22;9779;51.756;7.450;2023-04-21T04:24:59;9.30;99.90
19292;DHT22;9779;51.756;7.450;2023-04-21T04:27:28;9.40;99.90
19292;DHT22;9779;51.756;7.450;2023-04-21T04:29:54;9.30;99.90
19292;DHT22;9779;51.756;7.450;2023-04-21T04:32:19;9.30;99.90
19292;DHT22;9779;51.756;7.450;2023-04-21T04:34:46;9.30;99.90
19292;DHT22;9779;51.756;7.450;2023-04-21T04:37:11;9.30;99.90
19292;DHT22;9779;51.756;7.450;2023-04-21T04:39:37;9.30;99.90
19292;DHT22;9779;51.756;7.450;2023-04-21T04:42:06;9.30;99.90
19292;DHT22;9779;51.756;7.450;2023-04-21T04:44:33;9.30;99.90
19292;DHT22;9779;51.756;7.450;2023-04-21T04:46:59;9.30;99.90
19292;DHT22;9779;51.756;7.450;2023-04-21T04:49:24;9.30;99.90
19292;DHT22;9779;51.756;7.450;2023-04-21T04:51:50;9.30;99.90
19292;DHT22;9779;51.756;7.450;2023-04-21T04:54:15;9.30;99.90
19292;DHT22;9779;51.756;7.450;2023-04-21T04:56:41;9.30;99.90
19292;DHT22;9779;51.756;7.450;2023-04-21T04:59:07;9.30;99.90
19292;DHT22;9779;51.756;7.450;2023-04-21T05:01:32;9.30;99.90
19292;DHT22;9779;51.756;7.450;2023-04-21T05:03:58;9.30;99.90
19292;DHT22;9779;51.756;7.450;2023-04-21T05:06:24;9.20;99.90
19292;DHT22;9779;51.756;7.450;2023-04-21T05:08:50;9.20;99.90
19292;DHT22;9779;51.756;7.450;2023-04-21T05:11:15;9.30;99.90
19292;DHT22;9779;51.756;7.450;2023-04-21T05:13:41;9.30;99.90
19292;DHT22;9779;51.756;7.450;2023-04-21T05:16:07;9.20;99.90
19292;DHT22;9779;51.756;7.450;2023-04-21T05:18:34;9.30;99.90
19292;DHT22;9779;51.756;7.450;2023-04-21T05:20:59;9.30;99.90
19292;DHT22;9779;51.756;7.450;2023-04-21T05:23:25;9.20;99.90
19292;DHT22;9779;51.756;7.450;2023-04-21T05:25:51;9.30;99.90
19292;DHT22;9779;51.756;7.450;2023-04-21T05:28:16;9.30;99.90
19292;DHT22;9779;51.756;7.450;2023-04-21T05:30:42;9.30;99.90
19292;DHT22;9779;51.756;7.450;2023-04-21T05:33:07;9.30;99.90
19292;DHT22;9779;51.756;7.450;2023-04-21T05:35:33;9.30;99.90
19292;DHT22;9779;51.756;7.450;2023-04-21T05:37:59;9.30;99.90
19292;DHT22;9779;51.756;7.450;2023-04-21T05:40:25;9.30;99.90
19292;DHT22;9779;51.756;7.450;2023-04-21T05:42:50;9.40;99.90
19292;DHT22;9779;51.756;7.450;2023-04-21T05:45:16;9.40;99.90
19292;DHT22;9779;51.756;7.450;2023-04-21T05:47:41;9.40;99.90
19292;DHT22;9779;51.756;7.450;2023-04-21T05:50:07;9.40;99.90
19292;DHT22;9779;51.756;7.450;2023-04-21T05:52:33;9.30;99.90
19292;DHT22;9779;51.756;7.450;2023-04-21T05:54:59;9.30;99.90
19292;DHT22;9779;51.756;7.450;2023-04-21T05:57:25;9.30;99.90
19292;DHT22;9779;51.756;7.450;2023-04-21T05:59:51;9.30;99.90
19292;DHT22;9779;51.756;7.450;2023-04-21T06:02:16;9.40;99.90
19292;DHT22;9779;51.756;7.450;2023-04-21T06:04:42;9.40;99.90
19292;DHT22;9779;51.756;7.450;2023-04-21T06:07:08;9.40;99.90
19292;DHT22;9779;51.756;7.450;2023-04-21T06:09:35;9.40;99.90
19292;DHT22;9779;51.756;7.450;2023-04-21T06:12:01;9.50;99.90
19292;DHT22;9779;51.756;7.450;2023-04-21T06:14:27;9.40;99.90
19292;DHT22;9779;51.756;7.450;2023-04-21T06:16:52;9.40;99.90
19292;DHT22;9779;51.756;7.450;2023-04-21T06:19:18;9.40;99.90
19292;DHT22;9779;51.756;7.450;2023-04-21T06:21:43;9.50;99.90
19292;DHT22;9779;51.756;7.450;2023-04-21T06:24:09;9.50;99.90
19292;DHT22;9779;51.756;7.450;2023-04-21T06:26:34;9.50;99.90
19292;DHT22;9779;51.756;7.450;2023-04-21T06:29:00;9.50;99.90
19292;DHT22;9779;51.756;7.450;2023-04-21T06:31:26;9.50;99.90
19292;DHT22;9779;51.756;7.450;2023-04-21T06:33:52;9.50;99.90
19292;DHT22;9779;51.756;7.450;2023-04-21T06:36:17;9.60;99.90
19292;DHT22;9779;51.756;7.450;2023-04-21T06:38:43;9.60;99.90
19292;DHT22;9779;51.756;7.450;2023-04-21T06:41:09;9.60;99.90
19292;DHT22;9779;51.756;7.450;2023-04-21T06:43:35;9.60;99.90
19292;DHT22;9779;51.756;7.450;2023-04-21T06:46:00;9.70;99.90
19292;DHT22;9779;51.756;7.450;2023-04-21T06:48:26;9.70;99.90
19292;DHT22;9779;51.756;7.450;2023-04-21T06:50:52;9.70;99.90
19292;DHT22;9779;51.756;7.450;2023-04-21T06:53:18;9.80;99.90
19292;DHT22;9779;51.756;7.450;2023-04-21T06:55:43;9.90;99.90
19292;DHT22;9779;51.756;7.450;2023-04-21T06:58:09;9.90;99.90
19292;DHT22;9779;51.756;7.450;2023-04-21T07:00:35;9.90;99.90
19292;DHT22;9779;51.756;7.450;2023-04-21T07:03:01;10.00;99.90
19292;DHT22;9779;51.756;7.450;2023-04-21T07:05:26;10.00;99.90
19292;DHT22;9779;51.756;7.450;2023-04-21T07:07:52;10.10;99.90
19292;DHT22;9779;51.756;7.450;2023-04-21T07:10:21;10.10;99.90
19292;DHT22;9779;51.756;7.450;2023-04-21T07:12:46;10.20;99.90
19292;DHT22;9779;51.756;7.450;2023-04-21T07:15:12;10.20;99.90
19292;DHT22;9779;51.756;7.450;2023-04-21T07:17:37;10.20;99.90
19292;DHT22;9779;51.756;7.450;2023-04-21T07:20:03;10.20;99.90
19292;DHT22;9779;51.756;7.450;2023-04-21T07:22:29;10.20;99.90
19292;DHT22;9779;51.756;7.450;2023-04-21T07:24:54;10.30;99.90
19292;DHT22;9779;51.756;7.450;2023-04-21T07:27:20;10.30;99.90
19292;DHT22;9779;51.756;7.450;2023-04-21T07:29:45;10.30;99.90
19292;DHT22;9779;51.756;7.450;2023-04-21T07:32:11;10.30;99.90
19292;DHT22;9779;51.756;7.450;2023-04-21T07:34:36;10.30;99.90
19292;DHT22;9779;51.756;7.450;2023-04-21T07:37:02;10.40;99.90
19292;DHT22;9779;51.756;7.450;2023-04-21T07:39:28;10.40;99.90
19292;DHT22;9779;51.756;7.450;2023-04-21T07:41:53;10.50;99.90
19292;DHT22;9779;51.756;7.450;2023-04-21T07:44:20;10.50;99.90
19292;DHT22;9779;51.756;7.450;2023-04-21T07:46:45;10.60;99.90
19292;DHT22;9779;51.756;7.450;2023-04-21T07:49:11;10.60;99.90
19292;DHT22;9779;51.756;7.450;2023-04-21T07:51:36;10.60;99.90
19292;DHT22;9779;51.756;7.450;2023-04-21T07:54:02;10.70;99.90
19292;DHT22;9779;51.756;7.450;2023-04-21T07:56:28;10.80;99.90
19292;DHT22;9779;51.756;7.450;2023-04-21T07:58:53;10.90;99.90
19292;DHT22;9779;51.756;7.450;2023-04-21T08:01:19;10.90;99.90
19292;DHT22;9779;51.756;7.450;2023-04-21T08:03:45;11.00;99.90
19292;DHT22;9779;51.756;7.450;2023-04-21T08:06:10;11.10;99.90
19292;DHT22;9779;51.756;7.450;2023-04-21T08:08:36;11.10;99.90
19292;DHT22;9779;51.756;7.450;2023-04-21T08:11:01;11.30;99.90
19292;DHT22;9779;51.756;7.450;2023-04-21T08:13:27;11.40;99.90
19292;DHT22;9779;51.756;7.450;2023-04-21T08:15:53;11.50;99.90
19292;DHT22;9779;51.756;7.450;2023-04-21T08:18:19;11.50;99.90
19292;DHT22;9779;51.756;7.450;2023-04-21T08:20:45;11.50;99.90
19292;DHT22;9779;51.756;7.450;2023-04-21T08:23:14;11.60;99.90
19292;DHT22;9779;51.756;7.450;2023-04-21T08:25:40;11.60;99.90
19292;DHT22;9779;51.756;7.450;2023-04-21T08:28:06;11.60;99.90
19292;DHT22;9779;51.756;7.450;2023-04-21T08:30:31;11.60;95.90
19292;DHT22;9779;51.756;7.450;2023-04-21T08:32:57;11.60;2.00
19292;DHT22;9779;51.756;7.450;2023-04-21T08:35:23;11.70;1.00
19292;DHT22;9779;51.756;7.450;2023-04-21T08:37:48;11.70;1.00
19292;DHT22;9779;51.756;7.450;2023-04-21T08:40:14;11.80;1.00
19292;DHT22;9779;51.756;7.450;2023-04-21T08:42:41;11.90;1.00
19292;DHT22;9779;51.756;7.450;2023-04-21T08:45:07;12.00;1.00
19292;DHT22;9779;51.756;7.450;2023-04-21T08:47:34;12.00;1.00
19292;DHT22;9779;51.756;7.450;2023-04-21T08:50:02;12.10;1.00
19292;DHT22;9779;51.756;7.450;2023-04-21T08:52:28;12.20;1.00
19292;DHT22;9779;51.756;7.450;2023-04-21T08:54:54;12.20;1.00
19292;DHT22;9779;51.756;7.450;2023-04-21T08:57:20;12.30;1.00
19292;DHT22;9779;51.756;7.450;2023-04-21T08:59:46;12.30;1.00
19292;DHT22;9779;51.756;7.450;2023-04-21T09:02:16;12.40;1.00
19292;DHT22;9779;51.756;7.450;2023-04-21T09:04:50;12.40;1.00
19292;DHT22;9779;51.756;7.450;2023-04-21T09:10:00;12.50;1.00
19292;DHT22;9779;51.756;7.450;2023-04-21T09:12:26;12.50;1.00
19292;DHT22;9779;51.756;7.450;2023-04-21T09:14:52;12.50;1.00
19292;DHT22;9779;51.756;7.450;2023-04-21T09:17:21;12.50;1.00
19292;DHT22;9779;51.756;7.450;2023-04-21T09:19:46;12.50;1.00
19292;DHT22;9779;51.756;7.450;2023-04-21T09:22:16;12.50;1.00
19292;DHT22;9779;51.756;7.450;2023-04-21T09:24:47;12.50;1.00
19292;DHT22;9779;51.756;7.450;2023-04-21T09:27:14;12.50;1.00
19292;DHT22;9779;51.756;7.450;2023-04-21T09:29:45;12.50;1.00
19292;DHT22;9779;51.756;7.450;2023-04-21T09:32:19;12.50;1.00
19292;DHT22;9779;51.756;7.450;2023-04-21T09:34:45;12.50;1.00
19292;DHT22;9779;51.756;7.450;2023-04-21T09:37:12;12.40;1.00
19292;DHT22;9779;51.756;7.450;2023-04-21T09:39:38;12.40;1.00
19292;DHT22;9779;51.756;7.450;2023-04-21T09:42:10;12.40;1.00
19292;DHT22;9779;51.756;7.450;2023-04-21T09:44:35;12.40;1.00
19292;DHT22;9779;51.756;7.450;2023-04-21T09:47:03;12.50;1.00
19292;DHT22;9779;51.756;7.450;2023-04-21T09:49:32;12.40;1.00
19292;DHT22;9779;51.756;7.450;2023-04-21T09:52:00;12.40;1.00
19292;DHT22;9779;51.756;7.450;2023-04-21T09:54:33;12.40;1.00
19292;DHT22;9779;51.756;7.450;2023-04-21T09:57:02;12.40;1.00
19292;DHT22;9779;51.756;7.450;2023-04-21T09:59:32;12.40;1.00
19292;DHT22;9779;51.756;7.450;2023-04-21T10:01:59;12.40;1.00
19292;DHT22;9779;51.756;7.450;2023-04-21T10:04:27;12.40;2.40
19292;DHT22;9779;51.756;7.450;2023-04-21T10:06:53;12.30;1.00
19292;DHT22;9779;51.756;7.450;2023-04-21T10:09:22;12.40;1.00
19292;DHT22;9779;51.756;7.450;2023-04-21T10:11:48;12.40;1.00
19292;DHT22;9779;51.756;7.450;2023-04-21T10:14:14;12.40;1.00
19292;DHT22;9779;51.756;7.450;2023-04-21T10:16:40;12.50;1.00
19292;DHT22;9779;51.756;7.450;2023-04-21T10:19:26;12.50;1.00
19292;DHT22;9779;51.756;7.450;2023-04-21T10:21:55;12.50;23.90
19292;DHT22;9779;51.756;7.450;2023-04-21T10:24:22;12.60;93.60
19292;DHT22;9779;51.756;7.450;2023-04-21T10:26:49;12.60;47.40
19292;DHT22;9779;51.756;7.450;2023-04-21T10:29:16;12.70;35.90
19292;DHT22;9779;51.756;7.450;2023-04-21T10:31:53;12.70;46.00
19292;DHT22;9779;51.756;7.450;2023-04-21T10:34:29;12.70;93.20
19292;DHT22;9779;51.756;7.450;2023-04-21T10:39:25;12.80;51.90
19292;DHT22;9779;51.756;7.450;2023-04-21T10:41:51;12.90;48.10
19292;DHT22;9779;51.756;7.450;2023-04-21T10:44:20;13.00;1.00
19292;DHT22;9779;51.756;7.450;2023-04-21T10:46:48;13.00;1.00
19292;DHT22;9779;51.756;7.450;2023-04-21T10:49:25;13.00;1.00
19292;DHT22;9779;51.756;7.450;2023-04-21T10:54:26;13.20;1.00
19292;DHT22;9779;51.756;7.450;2023-04-21T10:56:53;13.30;1.00
19292;DHT22;9779;51.756;7.450;2023-04-21T10:59:20;13.30;1.00
19292;DHT22;9779;51.756;7.450;2023-04-21T11:01:45;13.40;1.00
19292;DHT22;9779;51.756;7.450;2023-04-21T11:04:15;13.60;1.00
19292;DHT22;9779;51.756;7.450;2023-04-21T11:06:42;13.60;1.00
19292;DHT22;9779;51.756;7.450;2023-04-21T11:09:07;13.80;1.00
19292;DHT22;9779;51.756;7.450;2023-04-21T11:11:34;13.90;1.00
19292;DHT22;9779;51.756;7.450;2023-04-21T11:14:01;14.00;1.00
19292;DHT22;9779;51.756;7.450;2023-04-21T11:16:26;14.20;99.90
19292;DHT22;9779;51.756;7.450;2023-04-21T11:18:52;14.30;99.90
19292;DHT22;9779;51.756;7.450;2023-04-21T11:21:20;14.50;99.90
19292;DHT22;9779;51.756;7.450;2023-04-21T11:23:48;14.60;99.90
19292;DHT22;9779;51.756;7.450;2023-04-21T11:26:14;14.80;1.00
19292;DHT22;9779;51.756;7.450;2023-04-21T11:28:40;14.90;1.00
19292;DHT22;9779;51.756;7.450;2023-04-21T11:31:06;14.90;1.00
19292;DHT22;9779;51.756;7.450;2023-04-21T11:33:37;15.10;99.90
19292;DHT22;9779;51.756;7.450;2023-04-21T11:36:04;15.20;99.90
19292;DHT22;9779;51.756;7.450;2023-04-21T11:38:56;15.40;99.90
19292;DHT22;9779;51.756;7.450;2023-04-21T11:41:23;15.50;99.90
19292;DHT22;9779;51.756;7.450;2023-04-21T11:43:50;15.60;1.00
19292;DHT22;9779;51.756;7.450;2023-04-21T11:46:24;15.70;1.00
19292;DHT22;9779;51.756;7.450;2023-04-21T11:49:04;15.80;99.90
19292;DHT22;9779;51.756;7.450;2023-04-21T11:51:34;15.90;1.00
19292;DHT22;9779;51.756;7.450;2023-04-21T11:54:01;16.00;1.00
19292;DHT22;9779;51.756;7.450;2023-04-21T11:56:26;16.10;74.60
19292;DHT22;9779;51.756;7.450;2023-04-21T11:58:52;16.10;1.00
19292;DHT22;9779;51.756;7.450;2023-04-21T12:01:19;16.10;1.00
19292;DHT22;9779;51.756;7.450;2023-04-21T12:03:55;16.00;99.90
19292;DHT22;9779;51.756;7.450;2023-04-21T12:06:25;16.00;1.00
19292;DHT22;9779;51.756;7.450;2023-04-21T12:09:02;15.90;99.90
19292;DHT22;9779;51.756;7.450;2023-04-21T12:11:29;15.90;1.00
19292;DHT22;9779;51.756;7.450;2023-04-21T12:13:56;15.80;1.00
19292;DHT22;9779;51.756;7.450;2023-04-21T12:16:27;15.80;1.00
19292;DHT22;9779;51.756;7.450;2023-04-21T12:18:53;15.80;1.00
19292;DHT22;9779;51.756;7.450;2023-04-21T12:21:19;15.80;1.00
19292;DHT22;9779;51.756;7.450;2023-04-21T12:23:44;15.70;99.90
19292;DHT22;9779;51.756;7.450;2023-04-21T12:26:11;15.70;99.90
19292;DHT22;9779;51.756;7.450;2023-04-21T12:28:37;15.60;99.90
19292;DHT22;9779;51.756;7.450;2023-04-21T12:31:04;15.60;99.90
19292;DHT22;9779;51.756;7.450;2023-04-21T12:33:29;15.60;99.90
19292;DHT22;9779;51.756;7.450;2023-04-21T12:35:55;15.60;1.00
19292;DHT22;9779;51.756;7.450;2023-04-21T12:38:21;15.60;1.00
19292;DHT22;9779;51.756;7.450;2023-04-21T12:40:47;15.70;1.00
19292;DHT22;9779;51.756;7.450;2023-04-21T12:43:13;15.70;1.00
19292;DHT22;9779;51.756;7.450;2023-04-21T12:45:38;15.80;1.00
19292;DHT22;9779;51.756;7.450;2023-04-21T12:48:04;16.00;99.90
19292;DHT22;9779;51.756;7.450;2023-04-21T12:50:30;16.20;99.90
19292;DHT22;9779;51.756;7.450;2023-04-21T12:52:56;16.40;1.00
19292;DHT22;9779;51.756;7.450;2023-04-21T12:55:22;16.50;1.00
19292;DHT22;9779;51.756;7.450;2023-04-21T12:57:48;16.80;1.00
19292;DHT22;9779;51.756;7.450;2023-04-21T13:00:14;16.90;1.00
19292;DHT22;9779;51.756;7.450;2023-04-21T13:02:41;17.00;99.90
19292;DHT22;9779;51.756;7.450;2023-04-21T13:05:06;17.00;1.00
19292;DHT22;9779;51.756;7.450;2023-04-21T13:07:34;17.00;1.00
19292;DHT22;9779;51.756;7.450;2023-04-21T13:10:00;17.00;22.30
19292;DHT22;9779;51.756;7.450;2023-04-21T13:12:27;16.90;99.90
19292;DHT22;9779;51.756;7.450;2023-04-21T13:14:52;16.90;1.00
19292;DHT22;9779;51.756;7.450;2023-04-21T13:17:18;16.90;99.90
19292;DHT22;9779;51.756;7.450;2023-04-21T13:19:44;16.90;99.90
19292;DHT22;9779;51.756;7.450;2023-04-21T13:22:09;16.80;99.90
19292;DHT22;9779;51.756;7.450;2023-04-21T13:24:35;16.80;99.90
19292;DHT22;9779;51.756;7.450;2023-04-21T13:27:00;16.70;99.90
19292;DHT22;9779;51.756;7.450;2023-04-21T13:29:26;16.70;99.90
19292;DHT22;9779;51.756;7.450;2023-04-21T13:31:55;16.60;1.00
19292;DHT22;9779;51.756;7.450;2023-04-21T13:34:21;16.60;1.00
19292;DHT22;9779;51.756;7.450;2023-04-21T13:36:46;16.60;1.00
19292;DHT22;9779;51.756;7.450;2023-04-21T13:39:13;16.60;1.00
19292;DHT22;9779;51.756;7.450;2023-04-21T13:41:39;16.50;39.80
19292;DHT22;9779;51.756;7.450;2023-04-21T13:44:04;16.60;99.90
19292;DHT22;9779;51.756;7.450;2023-04-21T13:46:30;16.60;99.90
19292;DHT22;9779;51.756;7.450;2023-04-21T13:48:56;16.60;99.90
19292;DHT22;9779;51.756;7.450;2023-04-21T13:51:21;16.60;99.90
19292;DHT22;9779;51.756;7.450;2023-04-21T13:53:47;16.70;1.60
19292;DHT22;9779;51.756;7.450;2023-04-21T13:56:13;16.70;1.00
19292;DHT22;9779;51.756;7.450;2023-04-21T13:58:40;16.70;1.00
19292;DHT22;9779;51.756;7.450;2023-04-21T14:01:05;16.60;99.90
19292;DHT22;9779;51.756;7.450;2023-04-21T14:03:31;16.60;99.90
19292;DHT22;9779;51.756;7.450;2023-04-21T14:05:56;16.60;1.00
19292;DHT22;9779;51.756;7.450;2023-04-21T14:08:22;16.60;1.00
19292;DHT22;9779;51.756;7.450;2023-04-21T14:10:48;16.60;1.00
19292;DHT22;9779;51.756;7.450;2023-04-21T14:13:13;16.60;99.90
19292;DHT22;9779;51.756;7.450;2023-04-21T14:15:39;16.60;1.00
19292;DHT22;9779;51.756;7.450;2023-04-21T14:18:05;16.60;1.00
19292;DHT22;9779;51.756;7.450;2023-04-21T14:20:30;16.50;99.90
19292;DHT22;9779;51.756;7.450;2023-04-21T14:22:56;16.60;1.00
19292;DHT22;9779;51.756;7.450;2023-04-21T14:25:21;16.60;99.90
19292;DHT22;9779;51.756;7.450;2023-04-21T14:27:47;16.50;65.10
19292;DHT22;9779;51.756;7.450;2023-04-21T14:30:13;16.50;1.00
19292;DHT22;9779;51.756;7.450;2023-04-21T14:32:38;16.50;1.00
19292;DHT22;9779;51.756;7.450;2023-04-21T14:35:11;16.40;1.00
19292;DHT22;9779;51.756;7.450;2023-04-21T14:37:37;16.40;99.90
19292;DHT22;9779;51.756;7.450;2023-04-21T14:40:02;16.40;1.00
19292;DHT22;9779;51.756;7.450;2023-04-21T14:42:28;16.30;1.00
19292;DHT22;9779;51.756;7.450;2023-04-21T14:44:54;16.30;1.00
19292;DHT22;9779;51.756;7.450;2023-04-21T14:47:20;16.20;1.00
19292;DHT22;9779;51.756;7.450;2023-04-21T14:49:46;16.20;32.70
19292;DHT22;9779;51.756;7.450;2023-04-21T14:52:14;16.20;99.90
19292;DHT22;9779;51.756;7.450;2023-04-21T14:54:40;16.20;1.00
19292;DHT22;9779;51.756;7.450;2023-04-21T14:57:05;16.20;1.00
19292;DHT22;9779;51.756;7.450;2023-04-21T14:59:31;16.20;4.20
19292;DHT22;9779;51.756;7.450;2023-04-21T15:01:56;16.20;99.90
19292;DHT22;9779;51.756;7.450;2023-04-21T15:04:22;16.10;99.90
19292;DHT22;9779;51.756;7.450;2023-04-21T15:06:48;16.10;99.90
19292;DHT22;9779;51.756;7.450;2023-04-21T15:09:13;16.10;1.00
19292;DHT22;9779;51.756;7.450;2023-04-21T15:11:39;16.00;1.00
19292;DHT22;9779;51.756;7.450;2023-04-21T15:14:05;16.00;99.90
19292;DHT22;9779;51.756;7.450;2023-04-21T15:16:30;16.00;1.00
19292;DHT22;9779;51.756;7.450;2023-04-21T15:18:56;16.00;1.00
19292;DHT22;9779;51.756;7.450;2023-04-21T15:21:21;16.00;1.00
19292;DHT22;9779;51.756;7.450;2023-04-21T15:23:47;16.00;1.00
19292;DHT22;9779;51.756;7.450;2023-04-21T15:26:12;16.00;99.90
19292;DHT22;9779;51.756;7.450;2023-04-21T15:28:38;15.90;99.90
19292;DHT22;9779;51.756;7.450;2023-04-21T15:31:05;16.00;99.90
19292;DHT22;9779;51.756;7.450;2023-04-21T15:33:30;15.90;1.00
19292;DHT22;9779;51.756;7.450;2023-04-21T15:35:56;16.00;1.00
19292;DHT22;9779;51.756;7.450;2023-04-21T15:38:21;16.00;1.00
19292;DHT22;9779;51.756;7.450;2023-04-21T15:40:47;16.00;1.00
19292;DHT22;9779;51.756;7.450;2023-04-21T15:43:13;16.00;99.90
19292;DHT22;9779;51.756;7.450;2023-04-21T15:45:38;16.00;99.90
19292;DHT22;9779;51.756;7.450;2023-04-21T15:48:06;16.00;1.00
19292;DHT22;9779;51.756;7.450;2023-04-21T15:50:31;16.00;1.00
19292;DHT22;9779;51.756;7.450;2023-04-21T15:52:57;16.10;99.90
19292;DHT22;9779;51.756;7.450;2023-04-21T15:55:22;16.00;1.00
19292;DHT22;9779;51.756;7.450;2023-04-21T15:57:48;16.00;99.90
19292;DHT22;9779;51.756;7.450;2023-04-21T16:00:14;16.00;1.00
19292;DHT22;9779;51.756;7.450;2023-04-21T16:02:39;16.10;1.00